Terminal Aerodrome Forecast
Issued by NWS Jacksonville, FL

Home | Current Version | Previous Version | Text Only | Print | Product List | Glossary On
Versions: 1 2 3 4 5 6 7 8 9 10 11 12 13 14 15
000
FTUS42 KJAX 020500
TAFGNV
TAF
KGNV 020520Z 0206/0306 VRB03KT P6SM FEW050 SCT250
     FM021900 11007KT P6SM VCTS SCT035CB BKN250
     FM030200 10003KT P6SM SCT050 SCT250=

USA.gov is the U.S. government's official web portal to all federal, state and local government web resources and services.